sensor_id;sensor_type;location;lat;lon;timestamp;P1;durP1;ratioP1;P2;durP2;ratioP2
40659;SDS011;26753;45.544;9.232;2024-01-27T00:00:13;170.70;;;92.53;;
40659;SDS011;26753;45.544;9.232;2024-01-27T00:02:39;165.45;;;92.72;;
40659;SDS011;26753;45.544;9.232;2024-01-27T00:05:08;162.30;;;87.40;;
40659;SDS011;26753;45.544;9.232;2024-01-27T00:07:37;154.63;;;86.80;;
40659;SDS011;26753;45.544;9.232;2024-01-27T00:10:27;154.90;;;84.88;;
40659;SDS011;26753;45.544;9.232;2024-01-27T00:12:56;153.80;;;83.40;;
40659;SDS011;26753;45.544;9.232;2024-01-27T00:15:23;155.70;;;84.60;;
40659;SDS011;26753;45.544;9.232;2024-01-27T00:17:49;151.43;;;82.03;;
40659;SDS011;26753;45.544;9.232;2024-01-27T00:20:15;155.10;;;82.18;;
40659;SDS011;26753;45.544;9.232;2024-01-27T00:22:44;153.05;;;82.88;;
40659;SDS011;26753;45.544;9.232;2024-01-27T00:27:53;143.10;;;76.03;;
40659;SDS011;26753;45.544;9.232;2024-01-27T00:30:19;142.88;;;77.25;;
40659;SDS011;26753;45.544;9.232;2024-01-27T00:32:45;139.82;;;76.15;;
40659;SDS011;26753;45.544;9.232;2024-01-27T00:35:12;140.75;;;75.57;;
40659;SDS011;26753;45.544;9.232;2024-01-27T00:37:40;142.50;;;76.32;;
40659;SDS011;26753;45.544;9.232;2024-01-27T00:40:26;141.68;;;75.15;;
40659;SDS011;26753;45.544;9.232;2024-01-27T00:42:52;140.93;;;75.63;;
40659;SDS011;26753;45.544;9.232;2024-01-27T00:45:19;143.75;;;74.75;;
40659;SDS011;26753;45.544;9.232;2024-01-27T00:54:13;139.50;;;75.05;;
40659;SDS011;26753;45.544;9.232;2024-01-27T00:57:02;140.70;;;75.35;;
40659;SDS011;26753;45.544;9.232;2024-01-27T00:59:31;137.73;;;74.93;;
40659;SDS011;26753;45.544;9.232;2024-01-27T01:01:57;136.68;;;74.57;;
40659;SDS011;26753;45.544;9.232;2024-01-27T01:04:24;141.02;;;76.10;;
40659;SDS011;26753;45.544;9.232;2024-01-27T01:06:50;141.20;;;74.18;;
40659;SDS011;26753;45.544;9.232;2024-01-27T01:09:16;143.70;;;76.40;;
40659;SDS011;26753;45.544;9.232;2024-01-27T01:11:43;140.10;;;75.70;;
40659;SDS011;26753;45.544;9.232;2024-01-27T01:27:03;148.07;;;81.25;;
40659;SDS011;26753;45.544;9.232;2024-01-27T01:32:45;147.55;;;79.82;;
40659;SDS011;26753;45.544;9.232;2024-01-27T01:35:11;152.20;;;82.13;;
40659;SDS011;26753;45.544;9.232;2024-01-27T01:37:37;151.93;;;83.32;;
40659;SDS011;26753;45.544;9.232;2024-01-27T01:40:28;143.02;;;80.10;;
40659;SDS011;26753;45.544;9.232;2024-01-27T01:58:41;154.65;;;84.15;;
40659;SDS011;26753;45.544;9.232;2024-01-27T02:01:26;148.85;;;82.15;;
40659;SDS011;26753;45.544;9.232;2024-01-27T02:03:59;154.13;;;81.78;;
40659;SDS011;26753;45.544;9.232;2024-01-27T02:06:44;147.35;;;83.13;;
40659;SDS011;26753;45.544;9.232;2024-01-27T02:09:10;151.55;;;81.53;;
40659;SDS011;26753;45.544;9.232;2024-01-27T02:12:13;155.48;;;84.82;;
40659;SDS011;26753;45.544;9.232;2024-01-27T02:14:39;152.73;;;84.53;;
40659;SDS011;26753;45.544;9.232;2024-01-27T02:17:05;148.95;;;80.72;;
40659;SDS011;26753;45.544;9.232;2024-01-27T02:19:50;150.07;;;81.95;;
40659;SDS011;26753;45.544;9.232;2024-01-27T02:22:16;150.35;;;81.57;;
40659;SDS011;26753;45.544;9.232;2024-01-27T02:24:42;147.57;;;81.55;;
40659;SDS011;26753;45.544;9.232;2024-01-27T02:27:08;147.88;;;82.78;;
40659;SDS011;26753;45.544;9.232;2024-01-27T02:29:35;157.57;;;83.18;;
40659;SDS011;26753;45.544;9.232;2024-01-27T02:32:01;153.65;;;86.70;;
40659;SDS011;26753;45.544;9.232;2024-01-27T02:34:30;160.15;;;86.13;;
40659;SDS011;26753;45.544;9.232;2024-01-27T02:36:59;154.38;;;85.28;;
40659;SDS011;26753;45.544;9.232;2024-01-27T02:39:25;156.88;;;85.70;;
40659;SDS011;26753;45.544;9.232;2024-01-27T02:42:31;157.60;;;85.10;;
40659;SDS011;26753;45.544;9.232;2024-01-27T03:09:40;166.57;;;91.50;;
40659;SDS011;26753;45.544;9.232;2024-01-27T03:15:52;172.77;;;96.32;;
40659;SDS011;26753;45.544;9.232;2024-01-27T03:18:19;184.15;;;97.88;;
40659;SDS011;26753;45.544;9.232;2024-01-27T03:20:45;190.07;;;99.75;;
40659;SDS011;26753;45.544;9.232;2024-01-27T03:23:13;182.48;;;98.85;;
40659;SDS011;26753;45.544;9.232;2024-01-27T03:25:40;179.85;;;96.10;;
40659;SDS011;26753;45.544;9.232;2024-01-27T03:28:08;179.80;;;95.05;;
40659;SDS011;26753;45.544;9.232;2024-01-27T03:30:57;178.98;;;96.38;;
40659;SDS011;26753;45.544;9.232;2024-01-27T03:33:51;167.73;;;91.60;;
40659;SDS011;26753;45.544;9.232;2024-01-27T03:36:18;166.13;;;90.60;;
40659;SDS011;26753;45.544;9.232;2024-01-27T03:38:47;170.98;;;91.63;;
40659;SDS011;26753;45.544;9.232;2024-01-27T03:41:33;168.25;;;90.25;;
40659;SDS011;26753;45.544;9.232;2024-01-27T03:47:25;162.77;;;88.22;;
40659;SDS011;26753;45.544;9.232;2024-01-27T03:49:51;172.15;;;91.78;;
40659;SDS011;26753;45.544;9.232;2024-01-27T03:52:17;163.30;;;90.35;;
40659;SDS011;26753;45.544;9.232;2024-01-27T03:54:46;171.07;;;90.70;;
40659;SDS011;26753;45.544;9.232;2024-01-27T03:57:15;167.93;;;92.30;;
40659;SDS011;26753;45.544;9.232;2024-01-27T03:59:45;170.65;;;92.57;;
40659;SDS011;26753;45.544;9.232;2024-01-27T04:02:19;169.35;;;90.78;;
40659;SDS011;26753;45.544;9.232;2024-01-27T04:20:12;159.50;;;86.97;;
40659;SDS011;26753;45.544;9.232;2024-01-27T04:23:12;162.75;;;87.68;;
40659;SDS011;26753;45.544;9.232;2024-01-27T04:25:42;158.65;;;87.25;;
40659;SDS011;26753;45.544;9.232;2024-01-27T04:50:30;163.55;;;88.53;;
40659;SDS011;26753;45.544;9.232;2024-01-27T04:53:02;160.73;;;86.10;;
40659;SDS011;26753;45.544;9.232;2024-01-27T04:55:48;155.18;;;83.88;;
40659;SDS011;26753;45.544;9.232;2024-01-27T04:58:49;139.93;;;77.82;;
40659;SDS011;26753;45.544;9.232;2024-01-27T05:01:28;141.00;;;78.53;;
40659;SDS011;26753;45.544;9.232;2024-01-27T05:04:03;136.27;;;74.93;;
40659;SDS011;26753;45.544;9.232;2024-01-27T05:16:23;114.63;;;63.00;;
40659;SDS011;26753;45.544;9.232;2024-01-27T05:19:10;106.65;;;61.53;;
40659;SDS011;26753;45.544;9.232;2024-01-27T05:37:47;99.93;;;56.78;;
40659;SDS011;26753;45.544;9.232;2024-01-27T05:40:16;97.35;;;56.00;;
40659;SDS011;26753;45.544;9.232;2024-01-27T05:42:42;101.43;;;58.25;;
40659;SDS011;26753;45.544;9.232;2024-01-27T05:45:12;95.85;;;56.17;;
40659;SDS011;26753;45.544;9.232;2024-01-27T05:47:39;96.00;;;55.97;;
40659;SDS011;26753;45.544;9.232;2024-01-27T05:50:11;94.35;;;55.35;;
40659;SDS011;26753;45.544;9.232;2024-01-27T05:52:37;93.15;;;54.25;;
40659;SDS011;26753;45.544;9.232;2024-01-27T05:55:17;97.95;;;55.53;;
40659;SDS011;26753;45.544;9.232;2024-01-27T05:57:47;96.63;;;56.45;;
40659;SDS011;26753;45.544;9.232;2024-01-27T06:02:58;102.13;;;55.40;;
40659;SDS011;26753;45.544;9.232;2024-01-27T06:08:48;97.45;;;55.08;;
40659;SDS011;26753;45.544;9.232;2024-01-27T06:11:23;97.13;;;55.72;;
40659;SDS011;26753;45.544;9.232;2024-01-27T06:20:08;99.22;;;53.03;;
40659;SDS011;26753;45.544;9.232;2024-01-27T06:25:37;92.82;;;51.72;;
40659;SDS011;26753;45.544;9.232;2024-01-27T06:28:10;102.30;;;54.15;;
40659;SDS011;26753;45.544;9.232;2024-01-27T06:30:46;102.93;;;53.78;;
40659;SDS011;26753;45.544;9.232;2024-01-27T06:33:13;101.25;;;52.70;;
40659;SDS011;26753;45.544;9.232;2024-01-27T06:35:39;99.20;;;50.72;;
40659;SDS011;26753;45.544;9.232;2024-01-27T06:38:05;102.35;;;50.13;;
40659;SDS011;26753;45.544;9.232;2024-01-27T06:40:49;101.15;;;50.42;;
40659;SDS011;26753;45.544;9.232;2024-01-27T06:43:23;98.57;;;50.03;;
40659;SDS011;26753;45.544;9.232;2024-01-27T06:45:52;112.53;;;48.90;;
40659;SDS011;26753;45.544;9.232;2024-01-27T06:48:23;96.55;;;47.67;;
40659;SDS011;26753;45.544;9.232;2024-01-27T06:53:49;130.68;;;48.15;;
40659;SDS011;26753;45.544;9.232;2024-01-27T06:56:16;97.38;;;47.03;;
40659;SDS011;26753;45.544;9.232;2024-01-27T06:58:51;103.03;;;47.83;;
40659;SDS011;26753;45.544;9.232;2024-01-27T07:01:35;97.88;;;47.25;;
40659;SDS011;26753;45.544;9.232;2024-01-27T07:04:05;110.70;;;47.15;;
40659;SDS011;26753;45.544;9.232;2024-01-27T07:06:31;136.20;;;45.58;;
40659;SDS011;26753;45.544;9.232;2024-01-27T07:08:57;152.65;;;47.17;;
40659;SDS011;26753;45.544;9.232;2024-01-27T07:11:26;156.82;;;46.30;;
40659;SDS011;26753;45.544;9.232;2024-01-27T07:22:53;101.53;;;45.85;;
40659;SDS011;26753;45.544;9.232;2024-01-27T07:25:25;93.90;;;47.65;;
40659;SDS011;26753;45.544;9.232;2024-01-27T07:27:53;93.22;;;46.85;;
40659;SDS011;26753;45.544;9.232;2024-01-27T07:30:20;92.35;;;45.72;;
40659;SDS011;26753;45.544;9.232;2024-01-27T07:32:46;90.75;;;47.80;;
40659;SDS011;26753;45.544;9.232;2024-01-27T07:35:13;100.53;;;47.08;;
40659;SDS011;26753;45.544;9.232;2024-01-27T07:37:45;93.10;;;47.67;;
40659;SDS011;26753;45.544;9.232;2024-01-27T07:40:11;92.95;;;48.17;;
40659;SDS011;26753;45.544;9.232;2024-01-27T07:42:37;94.65;;;47.47;;
40659;SDS011;26753;45.544;9.232;2024-01-27T07:48:04;93.63;;;47.78;;
40659;SDS011;26753;45.544;9.232;2024-01-27T07:50:33;92.97;;;48.05;;
40659;SDS011;26753;45.544;9.232;2024-01-27T07:53:19;93.97;;;48.43;;
40659;SDS011;26753;45.544;9.232;2024-01-27T07:55:45;98.30;;;48.55;;
40659;SDS011;26753;45.544;9.232;2024-01-27T07:58:16;93.55;;;46.70;;
40659;SDS011;26753;45.544;9.232;2024-01-27T08:00:45;101.78;;;49.30;;
40659;SDS011;26753;45.544;9.232;2024-01-27T08:03:11;97.47;;;49.53;;
40659;SDS011;26753;45.544;9.232;2024-01-27T08:05:37;97.65;;;48.13;;
40659;SDS011;26753;45.544;9.232;2024-01-27T08:08:14;105.13;;;48.92;;
40659;SDS011;26753;45.544;9.232;2024-01-27T08:10:40;105.22;;;49.92;;
40659;SDS011;26753;45.544;9.232;2024-01-27T08:13:30;97.60;;;48.83;;
40659;SDS011;26753;45.544;9.232;2024-01-27T08:15:56;100.13;;;50.90;;
40659;SDS011;26753;45.544;9.232;2024-01-27T08:18:31;96.72;;;49.25;;
40659;SDS011;26753;45.544;9.232;2024-01-27T08:21:02;95.13;;;48.17;;
40659;SDS011;26753;45.544;9.232;2024-01-27T08:23:32;106.28;;;49.83;;
40659;SDS011;26753;45.544;9.232;2024-01-27T08:25:58;100.72;;;50.40;;
40659;SDS011;26753;45.544;9.232;2024-01-27T08:28:24;99.93;;;51.13;;
40659;SDS011;26753;45.544;9.232;2024-01-27T08:30:53;102.93;;;50.72;;
40659;SDS011;26753;45.544;9.232;2024-01-27T08:33:19;100.30;;;50.65;;
40659;SDS011;26753;45.544;9.232;2024-01-27T08:35:51;99.85;;;50.90;;
40659;SDS011;26753;45.544;9.232;2024-01-27T08:38:20;101.43;;;51.40;;
40659;SDS011;26753;45.544;9.232;2024-01-27T08:40:56;106.05;;;52.55;;
40659;SDS011;26753;45.544;9.232;2024-01-27T08:43:22;102.53;;;51.35;;
40659;SDS011;26753;45.544;9.232;2024-01-27T08:45:49;103.68;;;52.33;;
40659;SDS011;26753;45.544;9.232;2024-01-27T08:48:15;105.55;;;52.08;;
40659;SDS011;26753;45.544;9.232;2024-01-27T08:50:41;106.78;;;52.53;;
40659;SDS011;26753;45.544;9.232;2024-01-27T08:53:07;93.20;;;49.55;;
40659;SDS011;26753;45.544;9.232;2024-01-27T08:55:33;104.80;;;51.40;;
40659;SDS011;26753;45.544;9.232;2024-01-27T08:58:00;99.20;;;49.05;;
40659;SDS011;26753;45.544;9.232;2024-01-27T09:00:26;98.63;;;49.28;;
40659;SDS011;26753;45.544;9.232;2024-01-27T09:02:52;101.93;;;51.08;;
40659;SDS011;26753;45.544;9.232;2024-01-27T09:05:21;93.55;;;48.97;;
40659;SDS011;26753;45.544;9.232;2024-01-27T09:07:47;98.43;;;49.72;;
40659;SDS011;26753;45.544;9.232;2024-01-27T09:10:13;93.00;;;49.30;;
40659;SDS011;26753;45.544;9.232;2024-01-27T09:12:41;93.60;;;47.88;;
40659;SDS011;26753;45.544;9.232;2024-01-27T09:15:07;88.03;;;47.47;;
40659;SDS011;26753;45.544;9.232;2024-01-27T09:17:36;91.25;;;49.30;;
40659;SDS011;26753;45.544;9.232;2024-01-27T09:20:03;95.57;;;49.75;;
40659;SDS011;26753;45.544;9.232;2024-01-27T09:22:29;93.90;;;49.40;;
40659;SDS011;26753;45.544;9.232;2024-01-27T09:24:59;88.47;;;48.15;;
40659;SDS011;26753;45.544;9.232;2024-01-27T09:27:25;94.57;;;48.55;;
40659;SDS011;26753;45.544;9.232;2024-01-27T09:29:54;89.63;;;48.75;;
40659;SDS011;26753;45.544;9.232;2024-01-27T09:32:20;88.70;;;48.63;;
40659;SDS011;26753;45.544;9.232;2024-01-27T09:34:47;88.15;;;47.03;;
40659;SDS011;26753;45.544;9.232;2024-01-27T09:37:13;85.35;;;46.72;;
40659;SDS011;26753;45.544;9.232;2024-01-27T09:39:39;84.43;;;47.80;;
40659;SDS011;26753;45.544;9.232;2024-01-27T09:42:06;86.18;;;47.15;;
40659;SDS011;26753;45.544;9.232;2024-01-27T09:44:34;85.22;;;48.00;;
40659;SDS011;26753;45.544;9.232;2024-01-27T09:47:00;81.47;;;45.95;;
40659;SDS011;26753;45.544;9.232;2024-01-27T09:49:27;87.22;;;47.78;;
40659;SDS011;26753;45.544;9.232;2024-01-27T09:51:53;86.03;;;46.50;;
40659;SDS011;26753;45.544;9.232;2024-01-27T09:54:22;79.38;;;45.88;;
40659;SDS011;26753;45.544;9.232;2024-01-27T09:56:48;83.90;;;45.83;;
40659;SDS011;26753;45.544;9.232;2024-01-27T09:59:15;82.90;;;46.33;;
40659;SDS011;26753;45.544;9.232;2024-01-27T10:01:43;84.18;;;47.40;;
40659;SDS011;26753;45.544;9.232;2024-01-27T10:04:10;90.28;;;46.92;;
40659;SDS011;26753;45.544;9.232;2024-01-27T10:06:39;82.20;;;45.20;;
40659;SDS011;26753;45.544;9.232;2024-01-27T10:09:06;88.65;;;48.28;;
40659;SDS011;26753;45.544;9.232;2024-01-27T10:11:33;75.05;;;43.88;;
40659;SDS011;26753;45.544;9.232;2024-01-27T10:14:02;77.05;;;44.22;;
40659;SDS011;26753;45.544;9.232;2024-01-27T10:16:28;73.65;;;42.33;;
40659;SDS011;26753;45.544;9.232;2024-01-27T10:19:08;73.40;;;43.15;;
40659;SDS011;26753;45.544;9.232;2024-01-27T10:21:41;83.97;;;44.67;;
40659;SDS011;26753;45.544;9.232;2024-01-27T10:24:07;80.90;;;45.58;;
40659;SDS011;26753;45.544;9.232;2024-01-27T10:26:33;74.47;;;44.28;;
40659;SDS011;26753;45.544;9.232;2024-01-27T10:29:00;71.28;;;42.85;;
40659;SDS011;26753;45.544;9.232;2024-01-27T10:31:30;72.65;;;42.70;;
40659;SDS011;26753;45.544;9.232;2024-01-27T10:33:57;75.30;;;42.42;;
40659;SDS011;26753;45.544;9.232;2024-01-27T10:36:23;73.85;;;42.65;;
40659;SDS011;26753;45.544;9.232;2024-01-27T10:38:52;72.65;;;42.35;;
40659;SDS011;26753;45.544;9.232;2024-01-27T10:41:21;76.75;;;42.47;;
40659;SDS011;26753;45.544;9.232;2024-01-27T10:43:53;71.22;;;39.45;;
40659;SDS011;26753;45.544;9.232;2024-01-27T10:46:22;77.68;;;44.78;;
40659;SDS011;26753;45.544;9.232;2024-01-27T10:48:51;73.60;;;43.50;;
40659;SDS011;26753;45.544;9.232;2024-01-27T10:54:26;88.50;;;47.13;;
40659;SDS011;26753;45.544;9.232;2024-01-27T10:56:55;91.13;;;50.85;;
40659;SDS011;26753;45.544;9.232;2024-01-27T10:59:22;87.85;;;48.58;;
40659;SDS011;26753;45.544;9.232;2024-01-27T11:01:51;86.13;;;48.42;;
40659;SDS011;26753;45.544;9.232;2024-01-27T11:04:19;94.60;;;52.17;;
40659;SDS011;26753;45.544;9.232;2024-01-27T11:06:51;90.07;;;50.63;;
40659;SDS011;26753;45.544;9.232;2024-01-27T11:09:18;91.72;;;51.92;;
40659;SDS011;26753;45.544;9.232;2024-01-27T11:11:44;95.78;;;53.35;;
40659;SDS011;26753;45.544;9.232;2024-01-27T11:14:11;92.78;;;53.40;;
40659;SDS011;26753;45.544;9.232;2024-01-27T11:16:43;95.55;;;52.80;;
40659;SDS011;26753;45.544;9.232;2024-01-27T11:19:16;97.22;;;53.03;;
40659;SDS011;26753;45.544;9.232;2024-01-27T11:21:43;97.70;;;55.05;;
40659;SDS011;26753;45.544;9.232;2024-01-27T11:24:16;96.30;;;54.70;;
40659;SDS011;26753;45.544;9.232;2024-01-27T11:26:46;91.70;;;53.55;;
40659;SDS011;26753;45.544;9.232;2024-01-27T11:29:21;98.50;;;55.45;;
40659;SDS011;26753;45.544;9.232;2024-01-27T11:31:47;97.97;;;54.42;;
40659;SDS011;26753;45.544;9.232;2024-01-27T11:34:17;94.95;;;52.83;;
40659;SDS011;26753;45.544;9.232;2024-01-27T11:36:44;97.43;;;52.95;;
40659;SDS011;26753;45.544;9.232;2024-01-27T11:45:06;99.60;;;53.78;;
40659;SDS011;26753;45.544;9.232;2024-01-27T11:47:34;87.43;;;51.15;;
40659;SDS011;26753;45.544;9.232;2024-01-27T11:50:00;89.18;;;51.70;;
40659;SDS011;26753;45.544;9.232;2024-01-27T11:52:34;92.10;;;50.65;;
40659;SDS011;26753;45.544;9.232;2024-01-27T11:58:24;87.30;;;51.35;;
40659;SDS011;26753;45.544;9.232;2024-01-27T12:03:59;90.00;;;52.13;;
40659;SDS011;26753;45.544;9.232;2024-01-27T12:07:21;90.30;;;53.13;;
40659;SDS011;26753;45.544;9.232;2024-01-27T12:09:57;85.05;;;50.92;;
40659;SDS011;26753;45.544;9.232;2024-01-27T12:13:05;88.20;;;51.38;;
40659;SDS011;26753;45.544;9.232;2024-01-27T12:15:40;82.72;;;51.42;;
40659;SDS011;26753;45.544;9.232;2024-01-27T12:18:13;88.53;;;56.08;;
40659;SDS011;26753;45.544;9.232;2024-01-27T12:20:39;86.63;;;51.88;;
40659;SDS011;26753;45.544;9.232;2024-01-27T12:23:05;89.95;;;50.60;;
40659;SDS011;26753;45.544;9.232;2024-01-27T12:25:34;80.72;;;50.35;;
40659;SDS011;26753;45.544;9.232;2024-01-27T12:28:03;80.82;;;49.05;;
40659;SDS011;26753;45.544;9.232;2024-01-27T12:30:33;73.72;;;48.92;;
40659;SDS011;26753;45.544;9.232;2024-01-27T12:33:00;75.00;;;49.33;;
40659;SDS011;26753;45.544;9.232;2024-01-27T12:35:26;81.88;;;50.70;;
40659;SDS011;26753;45.544;9.232;2024-01-27T12:37:59;78.15;;;49.38;;
40659;SDS011;26753;45.544;9.232;2024-01-27T12:40:37;77.78;;;48.65;;
40659;SDS011;26753;45.544;9.232;2024-01-27T12:43:03;69.65;;;46.85;;
40659;SDS011;26753;45.544;9.232;2024-01-27T12:45:29;71.35;;;48.20;;
40659;SDS011;26753;45.544;9.232;2024-01-27T12:47:55;69.65;;;45.63;;
40659;SDS011;26753;45.544;9.232;2024-01-27T12:50:24;69.25;;;44.30;;
40659;SDS011;26753;45.544;9.232;2024-01-27T12:53:41;65.80;;;45.08;;
40659;SDS011;26753;45.544;9.232;2024-01-27T12:56:00;60.97;;;43.65;;
40659;SDS011;26753;45.544;9.232;2024-01-27T12:58:33;56.55;;;43.42;;
40659;SDS011;26753;45.544;9.232;2024-01-27T13:01:05;58.83;;;42.30;;
40659;SDS011;26753;45.544;9.232;2024-01-27T13:03:31;56.50;;;43.47;;
40659;SDS011;26753;45.544;9.232;2024-01-27T13:06:08;52.88;;;40.70;;
40659;SDS011;26753;45.544;9.232;2024-01-27T13:08:50;52.60;;;41.85;;
40659;SDS011;26753;45.544;9.232;2024-01-27T13:11:19;55.28;;;40.40;;
40659;SDS011;26753;45.544;9.232;2024-01-27T13:13:46;53.65;;;41.17;;
40659;SDS011;26753;45.544;9.232;2024-01-27T13:16:14;46.85;;;37.65;;
40659;SDS011;26753;45.544;9.232;2024-01-27T13:18:40;48.95;;;36.72;;
40659;SDS011;26753;45.544;9.232;2024-01-27T13:21:06;43.00;;;35.55;;
40659;SDS011;26753;45.544;9.232;2024-01-27T13:23:35;44.67;;;36.28;;
40659;SDS011;26753;45.544;9.232;2024-01-27T13:26:01;44.17;;;35.08;;
40659;SDS011;26753;45.544;9.232;2024-01-27T13:28:30;43.30;;;34.88;;
40659;SDS011;26753;45.544;9.232;2024-01-27T13:30:56;41.42;;;33.60;;
40659;SDS011;26753;45.544;9.232;2024-01-27T13:33:25;40.78;;;33.42;;
40659;SDS011;26753;45.544;9.232;2024-01-27T13:35:53;41.92;;;32.55;;
40659;SDS011;26753;45.544;9.232;2024-01-27T13:38:19;39.22;;;33.13;;
40659;SDS011;26753;45.544;9.232;2024-01-27T13:40:59;41.28;;;33.63;;
40659;SDS011;26753;45.544;9.232;2024-01-27T13:43:25;43.05;;;33.33;;
40659;SDS011;26753;45.544;9.232;2024-01-27T13:45:56;36.13;;;30.80;;
40659;SDS011;26753;45.544;9.232;2024-01-27T13:48:29;36.25;;;31.05;;
40659;SDS011;26753;45.544;9.232;2024-01-27T13:50:58;39.67;;;31.17;;
40659;SDS011;26753;45.544;9.232;2024-01-27T13:53:39;39.30;;;30.20;;
40659;SDS011;26753;45.544;9.232;2024-01-27T13:56:16;36.95;;;30.05;;
40659;SDS011;26753;45.544;9.232;2024-01-27T13:59:21;39.20;;;30.50;;
40659;SDS011;26753;45.544;9.232;2024-01-27T14:02:10;34.75;;;28.48;;
40659;SDS011;26753;45.544;9.232;2024-01-27T14:04:40;33.53;;;27.75;;
40659;SDS011;26753;45.544;9.232;2024-01-27T14:07:06;34.95;;;28.42;;
40659;SDS011;26753;45.544;9.232;2024-01-27T14:12:12;32.17;;;28.67;;
40659;SDS011;26753;45.544;9.232;2024-01-27T14:17:40;35.85;;;28.95;;
40659;SDS011;26753;45.544;9.232;2024-01-27T14:20:06;33.17;;;28.80;;
40659;SDS011;26753;45.544;9.232;2024-01-27T14:22:34;38.92;;;29.38;;
40659;SDS011;26753;45.544;9.232;2024-01-27T14:25:03;33.70;;;28.98;;
40659;SDS011;26753;45.544;9.232;2024-01-27T14:27:40;36.28;;;29.60;;
40659;SDS011;26753;45.544;9.232;2024-01-27T14:30:07;36.85;;;32.05;;
40659;SDS011;26753;45.544;9.232;2024-01-27T14:32:35;36.35;;;29.40;;
40659;SDS011;26753;45.544;9.232;2024-01-27T14:35:01;34.00;;;29.60;;
40659;SDS011;26753;45.544;9.232;2024-01-27T14:37:33;33.75;;;29.08;;
40659;SDS011;26753;45.544;9.232;2024-01-27T14:40:03;33.67;;;28.77;;
40659;SDS011;26753;45.544;9.232;2024-01-27T14:42:33;35.03;;;29.23;;
40659;SDS011;26753;45.544;9.232;2024-01-27T14:47:45;36.58;;;28.42;;
40659;SDS011;26753;45.544;9.232;2024-01-27T14:50:11;35.38;;;29.42;;
40659;SDS011;26753;45.544;9.232;2024-01-27T14:52:53;37.67;;;30.35;;
40659;SDS011;26753;45.544;9.232;2024-01-27T14:55:22;36.45;;;30.08;;
40659;SDS011;26753;45.544;9.232;2024-01-27T14:57:53;36.97;;;31.38;;
40659;SDS011;26753;45.544;9.232;2024-01-27T15:00:20;34.78;;;29.55;;
40659;SDS011;26753;45.544;9.232;2024-01-27T15:02:46;36.72;;;29.35;;
40659;SDS011;26753;45.544;9.232;2024-01-27T15:05:11;35.70;;;28.10;;
40659;SDS011;26753;45.544;9.232;2024-01-27T15:07:44;36.35;;;29.63;;
40659;SDS011;26753;45.544;9.232;2024-01-27T15:23:11;37.40;;;32.53;;
40659;SDS011;26753;45.544;9.232;2024-01-27T15:25:40;44.15;;;32.05;;
40659;SDS011;26753;45.544;9.232;2024-01-27T15:28:06;43.58;;;35.65;;
40659;SDS011;26753;45.544;9.232;2024-01-27T15:30:50;47.47;;;38.08;;
40659;SDS011;26753;45.544;9.232;2024-01-27T15:33:16;50.67;;;39.20;;
40659;SDS011;26753;45.544;9.232;2024-01-27T15:35:45;49.35;;;39.78;;
40659;SDS011;26753;45.544;9.232;2024-01-27T15:45:22;58.22;;;41.33;;
40659;SDS011;26753;45.544;9.232;2024-01-27T15:48:33;55.13;;;42.20;;
40659;SDS011;26753;45.544;9.232;2024-01-27T15:54:40;58.77;;;42.33;;
40659;SDS011;26753;45.544;9.232;2024-01-27T15:57:09;57.08;;;42.67;;
40659;SDS011;26753;45.544;9.232;2024-01-27T15:59:39;61.00;;;43.78;;
40659;SDS011;26753;45.544;9.232;2024-01-27T16:02:05;64.75;;;43.95;;
40659;SDS011;26753;45.544;9.232;2024-01-27T16:04:42;66.70;;;46.25;;
40659;SDS011;26753;45.544;9.232;2024-01-27T16:07:14;64.22;;;44.45;;
40659;SDS011;26753;45.544;9.232;2024-01-27T16:09:48;60.63;;;43.70;;
40659;SDS011;26753;45.544;9.232;2024-01-27T16:12:15;59.22;;;44.03;;
40659;SDS011;26753;45.544;9.232;2024-01-27T16:14:41;62.78;;;42.40;;
40659;SDS011;26753;45.544;9.232;2024-01-27T16:17:07;70.50;;;47.05;;
40659;SDS011;26753;45.544;9.232;2024-01-27T16:19:38;66.68;;;46.00;;
40659;SDS011;26753;45.544;9.232;2024-01-27T16:22:04;62.78;;;44.00;;
40659;SDS011;26753;45.544;9.232;2024-01-27T16:24:30;64.63;;;45.78;;
40659;SDS011;26753;45.544;9.232;2024-01-27T16:27:01;63.08;;;44.97;;
40659;SDS011;26753;45.544;9.232;2024-01-27T16:29:30;62.25;;;43.92;;
40659;SDS011;26753;45.544;9.232;2024-01-27T16:32:05;64.20;;;43.20;;
40659;SDS011;26753;45.544;9.232;2024-01-27T16:34:34;62.38;;;43.50;;
40659;SDS011;26753;45.544;9.232;2024-01-27T16:37:00;62.72;;;43.75;;
40659;SDS011;26753;45.544;9.232;2024-01-27T16:39:31;63.83;;;43.30;;
40659;SDS011;26753;45.544;9.232;2024-01-27T16:41:57;61.38;;;43.20;;
40659;SDS011;26753;45.544;9.232;2024-01-27T16:44:23;65.65;;;43.83;;
40659;SDS011;26753;45.544;9.232;2024-01-27T16:46:51;61.60;;;43.35;;
40659;SDS011;26753;45.544;9.232;2024-01-27T16:49:17;64.85;;;44.03;;
40659;SDS011;26753;45.544;9.232;2024-01-27T16:51:43;63.25;;;42.35;;
40659;SDS011;26753;45.544;9.232;2024-01-27T16:54:16;63.28;;;42.40;;
40659;SDS011;26753;45.544;9.232;2024-01-27T16:59:14;68.32;;;43.58;;
40659;SDS011;26753;45.544;9.232;2024-01-27T17:01:47;65.90;;;44.08;;
40659;SDS011;26753;45.544;9.232;2024-01-27T17:04:15;66.72;;;43.80;;
40659;SDS011;26753;45.544;9.232;2024-01-27T17:06:41;64.15;;;43.15;;
40659;SDS011;26753;45.544;9.232;2024-01-27T17:09:07;67.07;;;46.28;;
40659;SDS011;26753;45.544;9.232;2024-01-27T17:11:36;67.40;;;45.75;;
40659;SDS011;26753;45.544;9.232;2024-01-27T17:14:07;66.45;;;45.50;;
40659;SDS011;26753;45.544;9.232;2024-01-27T17:16:36;66.95;;;45.17;;
40659;SDS011;26753;45.544;9.232;2024-01-27T17:19:11;63.33;;;43.85;;
40659;SDS011;26753;45.544;9.232;2024-01-27T17:21:42;67.85;;;45.67;;
40659;SDS011;26753;45.544;9.232;2024-01-27T17:24:11;67.10;;;45.38;;
40659;SDS011;26753;45.544;9.232;2024-01-27T17:26:37;67.60;;;46.85;;
40659;SDS011;26753;45.544;9.232;2024-01-27T17:29:03;72.78;;;46.45;;
40659;SDS011;26753;45.544;9.232;2024-01-27T17:31:37;71.70;;;47.70;;
40659;SDS011;26753;45.544;9.232;2024-01-27T17:34:05;69.20;;;47.00;;
40659;SDS011;26753;45.544;9.232;2024-01-27T17:36:31;69.63;;;48.30;;
40659;SDS011;26753;45.544;9.232;2024-01-27T17:38:59;72.20;;;47.53;;
40659;SDS011;26753;45.544;9.232;2024-01-27T17:41:25;66.32;;;44.85;;
40659;SDS011;26753;45.544;9.232;2024-01-27T17:43:51;70.28;;;46.58;;
40659;SDS011;26753;45.544;9.232;2024-01-27T17:46:40;66.55;;;45.08;;
40659;SDS011;26753;45.544;9.232;2024-01-27T17:49:09;68.28;;;45.70;;
40659;SDS011;26753;45.544;9.232;2024-01-27T17:51:34;72.53;;;47.33;;
40659;SDS011;26753;45.544;9.232;2024-01-27T17:54:10;71.70;;;48.08;;
40659;SDS011;26753;45.544;9.232;2024-01-27T17:56:39;74.28;;;48.53;;
40659;SDS011;26753;45.544;9.232;2024-01-27T17:59:07;67.22;;;45.35;;
40659;SDS011;26753;45.544;9.232;2024-01-27T18:01:52;70.75;;;45.78;;
40659;SDS011;26753;45.544;9.232;2024-01-27T18:04:18;77.82;;;47.55;;
40659;SDS011;26753;45.544;9.232;2024-01-27T18:06:50;71.40;;;47.33;;
40659;SDS011;26753;45.544;9.232;2024-01-27T18:15:09;75.63;;;48.35;;
40659;SDS011;26753;45.544;9.232;2024-01-27T18:18:01;80.97;;;47.90;;
40659;SDS011;26753;45.544;9.232;2024-01-27T18:20:27;74.38;;;49.20;;